Huvudsida
METAR-TAF:

METAR-TAF

Flygplatser :

Stockholm-Västerås flygplats

Västerås, Sverige

latitud: 59-35N, longitud: 016-38E, höjd: 6 m

Aktuellt väderrapport

Denna rapport gjordes för 1 timme och 5 minuter sedan, klockan 07:20 UTC
Vind 18 kt från syd/sydväst i byarna ända upp till 28 kt
Temperatur 7°C
Fuktighet 81%
Tryck 987 hPa
Sikt: 9000 m
regn

METAR: ESOW 220720Z AUTO 20018G28KT 9000 RA FEW007/// OVC015/// 07/04 Q0987 REDZ RESHUP

Tid: 09:25 (08:25 UTC)

Väderprognos

Denna rapport gjordes för 20 timmar och 55 minuter sedan, klockan 11:30 UTC
Prognos gäller från 21 kl. 12 UTC till 21 kl. 16 UTC
Vind 12 kt från väst/sydväst i byarna ända upp till 22 kt
Sikt 10 km eller mer
Inga moln under 1 500 m eller inga cumulonimbus

TAF: ESOW 211130Z 2112/2116 25012G22KT CAVOK

Aktuella väderrapporter och prognoser från 4000 flygplatser (METAR- och TAF-rapporter).

De tillgängliga stationerna syns som gula och röda prickar på kartan.

För musen över prickarna för att se namnen på stationerna.

Klicka sedan för att få väderrapporter och prognoser.

För att ändra kartan: Klicka på de gröna knapparna med ett svart kors på för att zooma in; den gröna knappen med ett streck på för att zooma ut; eller på de gröna pilarna för angränsande kartor.


METAR-TAF: